Time;durP1;ratioP1;P1;durP2;ratioP2;P2;SDS_P1;SDS_P2;PMS_P1;PMS_P2;Temp;Humidity;BMP_temperature;BMP_pressure;BME280_temperature;BME280_humidity;BME280_pressure;Samples;Min_cycle;Max_cycle;Signal;HPM_P1;HPM_P2
2021/01/22 00:02:20;;;;;;;10.47;3.00;;;2.30;99.90;;;;;;5053124;28;20231;-61
2021/01/22 00:04:47;;;;;;;8.57;2.90;;;2.30;99.90;;;;;;5052571;28;20334;-61
2021/01/22 00:07:13;;;;;;;12.80;3.03;;;2.30;99.90;;;;;;5052989;28;20299;-62
2021/01/22 00:09:40;;;;;;;11.47;2.93;;;2.20;99.90;;;;;;5052545;28;20242;-63
2021/01/22 00:12:08;;;;;;;10.40;3.33;;;2.10;99.90;;;;;;5052213;28;20206;-64
2021/01/22 00:14:35;;;;;;;9.40;3.40;;;2.20;99.90;;;;;;5052579;28;20219;-62
2021/01/22 00:17:01;;;;;;;10.80;2.90;;;2.30;99.90;;;;;;5052248;28;20328;-62
2021/01/22 00:19:28;;;;;;;8.80;3.17;;;2.20;99.90;;;;;;5052538;28;20404;-62
2021/01/22 00:21:54;;;;;;;8.40;3.17;;;2.30;99.90;;;;;;5052012;28;20230;-61
2021/01/22 00:24:20;;;;;;;10.53;2.80;;;2.30;99.90;;;;;;5052343;28;20219;-63
2021/01/22 00:26:47;;;;;;;12.63;3.10;;;2.30;99.90;;;;;;5052547;28;20242;-62
2021/01/22 00:29:14;;;;;;;8.67;3.33;;;2.30;99.90;;;;;;5052050;28;20602;-63
2021/01/22 00:31:41;;;;;;;7.07;2.73;;;2.30;99.90;;;;;;5052372;28;20282;-62
2021/01/22 00:34:07;;;;;;;11.20;3.13;;;2.30;99.90;;;;;;5051393;28;20275;-61
2021/01/22 00:36:34;;;;;;;11.30;4.70;;;2.30;99.90;;;;;;5051742;28;20196;-64
2021/01/22 00:39:00;;;;;;;10.57;3.40;;;2.30;99.90;;;;;;5051946;28;20231;-61
2021/01/22 00:41:26;;;;;;;11.20;3.47;;;2.30;99.90;;;;;;5052006;28;20207;-62
2021/01/22 00:43:53;;;;;;;13.87;3.40;;;2.20;99.90;;;;;;5052436;28;20630;-62
2021/01/22 00:46:20;;;;;;;12.50;3.47;;;2.20;99.90;;;;;;5051551;28;20270;-63
2021/01/22 00:48:46;;;;;;;10.60;3.77;;;2.20;99.90;;;;;;5052066;28;20295;-61
2021/01/22 00:51:13;;;;;;;12.03;3.00;;;2.30;99.90;;;;;;5051673;28;20218;-62
2021/01/22 00:53:39;;;;;;;8.47;3.23;;;2.30;99.90;;;;;;5031864;28;20577;-60
2021/01/22 00:56:06;;;;;;;9.27;3.27;;;2.30;99.90;;;;;;5051179;28;20223;-62
2021/01/22 00:58:32;;;;;;;9.77;3.33;;;2.30;99.90;;;;;;5051726;28;20231;-61
2021/01/22 01:00:59;;;;;;;9.60;3.10;;;2.30;99.90;;;;;;5052007;28;20281;-62
2021/01/22 01:03:26;;;;;;;9.33;3.00;;;2.30;99.90;;;;;;5052126;28;20282;-63
2021/01/22 01:05:52;;;;;;;13.60;3.90;;;2.20;99.90;;;;;;5051555;28;20219;-63
2021/01/22 01:08:19;;;;;;;8.53;3.03;;;2.20;99.90;;;;;;5052070;28;20242;-62
2021/01/22 01:10:46;;;;;;;8.73;3.27;;;2.10;99.90;;;;;;5051102;28;20373;-61
2021/01/22 01:13:12;;;;;;;12.37;3.13;;;2.10;99.90;;;;;;5051534;28;20654;-64
2021/01/22 01:15:39;;;;;;;10.17;3.50;;;2.20;99.90;;;;;;5051870;28;20302;-61
2021/01/22 01:18:05;;;;;;;9.97;3.20;;;2.10;99.90;;;;;;5051301;28;20808;-62
2021/01/22 01:20:33;;;;;;;9.00;3.20;;;2.10;99.90;;;;;;5051486;28;20255;-62
2021/01/22 01:22:59;;;;;;;12.07;3.47;;;2.20;99.90;;;;;;5050849;28;20659;-63
2021/01/22 01:25:26;;;;;;;15.67;3.30;;;2.20;99.90;;;;;;5051503;28;20256;-61
2021/01/22 01:27:52;;;;;;;10.03;3.10;;;2.30;99.90;;;;;;5051150;28;20300;-64
2021/01/22 01:30:19;;;;;;;11.10;3.30;;;2.30;99.90;;;;;;5050859;28;20242;-61
2021/01/22 01:32:46;;;;;;;10.33;3.37;;;2.30;99.90;;;;;;5050980;28;20804;-62
2021/01/22 01:35:13;;;;;;;13.13;3.60;;;2.30;99.90;;;;;;5050997;28;20230;-65
2021/01/22 01:37:40;;;;;;;11.77;3.23;;;2.30;99.90;;;;;;5050840;28;20242;-63
2021/01/22 01:40:07;;;;;;;9.07;3.67;;;2.30;99.90;;;;;;5049873;28;20745;-62
2021/01/22 01:42:35;;;;;;;9.67;3.53;;;2.30;99.90;;;;;;5050976;28;20227;-62
2021/01/22 01:45:02;;;;;;;11.23;3.13;;;2.30;99.90;;;;;;5050799;28;20653;-61
2021/01/22 01:47:28;;;;;;;13.00;3.40;;;2.30;99.90;;;;;;5050606;28;20574;-62
2021/01/22 01:49:55;;;;;;;8.43;3.10;;;2.20;99.90;;;;;;5050502;28;20202;-62
2021/01/22 01:52:21;;;;;;;12.47;3.80;;;2.20;99.90;;;;;;5051123;28;20687;-61
2021/01/22 01:54:49;;;;;;;13.37;3.77;;;2.20;99.90;;;;;;5050502;28;20212;-60
2021/01/22 01:57:15;;;;;;;13.00;3.27;;;2.20;99.90;;;;;;5051059;28;20667;-62
2021/01/22 01:59:42;;;;;;;12.20;3.53;;;2.30;99.90;;;;;;5050464;28;20297;-61
2021/01/22 02:02:10;;;;;;;10.50;3.80;;;2.30;99.90;;;;;;5050536;28;20249;-62
2021/01/22 02:04:37;;;;;;;13.27;4.17;;;2.30;99.90;;;;;;5051112;28;20263;-63
2021/01/22 02:07:03;;;;;;;12.40;3.50;;;2.30;99.90;;;;;;5050693;28;20234;-63
2021/01/22 02:09:31;;;;;;;7.90;3.63;;;2.20;99.90;;;;;;5050870;28;20298;-61
2021/01/22 02:12:00;;;;;;;8.87;3.73;;;2.20;99.90;;;;;;5050296;28;20227;-61
2021/01/22 02:14:27;;;;;;;10.57;3.57;;;2.20;99.90;;;;;;5050803;28;20214;-63
2021/01/22 02:16:54;;;;;;;8.10;3.90;;;2.20;99.90;;;;;;5050192;28;20233;-62
2021/01/22 02:19:43;;;;;;;8.00;3.57;;;2.20;99.90;;;;;;5050229;28;20310;-63
2021/01/22 02:22:10;;;;;;;14.20;3.87;;;2.20;99.90;;;;;;5045892;28;20222;-59
2021/01/22 02:24:39;;;;;;;16.00;4.20;;;2.30;99.90;;;;;;5050516;28;20226;-62
2021/01/22 02:27:06;;;;;;;10.43;3.77;;;2.30;99.90;;;;;;5049834;28;20630;-63
2021/01/22 02:29:34;;;;;;;12.03;3.80;;;2.10;99.90;;;;;;5050643;28;20246;-61
2021/01/22 02:32:05;;;;;;;12.80;3.73;;;2.10;99.90;;;;;;5050487;28;20281;-61
2021/01/22 02:34:37;;;;;;;9.87;3.83;;;2.20;99.90;;;;;;5050810;28;20651;-61
2021/01/22 02:37:05;;;;;;;13.27;3.93;;;2.10;99.90;;;;;;5050168;28;20267;-63
2021/01/22 02:39:35;;;;;;;11.63;3.77;;;2.10;99.90;;;;;;5050586;28;20255;-61
2021/01/22 02:42:03;;;;;;;6.87;3.53;;;2.20;99.90;;;;;;5050156;28;20215;-61
2021/01/22 02:44:31;;;;;;;7.87;3.20;;;2.10;99.90;;;;;;5050685;28;20187;-62
2021/01/22 02:46:59;;;;;;;10.33;3.70;;;2.10;99.90;;;;;;5050047;28;20227;-62
2021/01/22 02:49:26;;;;;;;12.70;4.17;;;2.10;99.90;;;;;;5050355;28;20202;-61
2021/01/22 02:51:52;;;;;;;10.50;3.53;;;2.10;99.90;;;;;;5051665;28;20234;-61
2021/01/22 02:54:19;;;;;;;8.53;3.53;;;2.20;99.90;;;;;;5054212;28;20564;-62
2021/01/22 02:56:52;;;;;;;12.70;4.07;;;2.20;99.90;;;;;;5053817;28;20222;-63
2021/01/22 02:59:34;;;;;;;11.17;3.73;;;2.20;99.90;;;;;;5053742;28;20251;-62
2021/01/22 03:02:12;;;;;;;13.37;3.70;;;2.30;99.90;;;;;;5053712;28;20325;-63
2021/01/22 03:04:39;;;;;;;12.87;3.77;;;2.30;99.90;;;;;;5054020;28;20262;-61
2021/01/22 03:07:10;;;;;;;13.20;4.07;;;2.30;99.90;;;;;;5053404;28;20234;-61
2021/01/22 03:09:39;;;;;;;13.63;3.57;;;2.30;99.90;;;;;;5053854;28;20195;-60
2021/01/22 03:12:07;;;;;;;10.37;3.73;;;2.40;99.90;;;;;;5053175;28;20657;-63
2021/01/22 03:14:35;;;;;;;14.00;3.40;;;2.40;99.90;;;;;;5053587;28;20223;-63
2021/01/22 03:17:02;;;;;;;5.90;3.57;;;2.40;99.90;;;;;;5054022;28;20200;-63
2021/01/22 03:19:28;;;;;;;7.83;3.60;;;2.40;99.90;;;;;;5053658;28;20251;-61
2021/01/22 03:21:54;;;;;;;11.13;3.10;;;2.40;99.90;;;;;;5053927;28;20234;-62
2021/01/22 03:24:21;;;;;;;17.33;3.60;;;2.40;99.90;;;;;;5053687;28;20601;-63
2021/01/22 03:26:47;;;;;;;6.80;3.30;;;2.40;99.90;;;;;;5053483;28;20235;-63
2021/01/22 03:29:14;;;;;;;11.60;3.23;;;2.40;99.90;;;;;;5050601;28;20231;-62
2021/01/22 03:31:41;;;;;;;10.13;3.63;;;2.50;99.90;;;;;;5053558;28;20192;-62
2021/01/22 03:34:07;;;;;;;9.90;3.27;;;2.40;99.90;;;;;;5052892;28;20226;-60
2021/01/22 03:36:34;;;;;;;10.23;3.50;;;2.40;99.90;;;;;;5053599;28;20261;-61
2021/01/22 03:39:00;;;;;;;14.17;3.90;;;2.50;99.90;;;;;;5052979;28;20195;-62
2021/01/22 03:41:27;;;;;;;11.23;3.17;;;2.40;99.90;;;;;;5052822;28;20752;-65
2021/01/22 03:43:53;;;;;;;8.63;3.30;;;2.50;99.90;;;;;;5053179;28;20241;-62
2021/01/22 03:46:20;;;;;;;8.70;3.53;;;2.50;99.90;;;;;;5053407;28;20203;-62
2021/01/22 03:48:47;;;;;;;7.73;3.23;;;2.60;99.90;;;;;;5053461;28;20230;-63
2021/01/22 03:51:13;;;;;;;8.97;3.70;;;2.60;99.90;;;;;;5053015;28;20247;-61
2021/01/22 03:53:40;;;;;;;8.27;3.40;;;2.60;99.90;;;;;;5053256;28;20281;-62
2021/01/22 03:56:06;;;;;;;11.53;3.50;;;2.70;99.90;;;;;;5053653;28;20199;-61
2021/01/22 03:58:33;;;;;;;10.87;3.50;;;2.70;99.90;;;;;;5052980;28;20238;-61
2021/01/22 04:00:59;;;;;;;14.03;3.73;;;2.70;99.90;;;;;;5052208;28;20649;-63
2021/01/22 04:03:26;;;;;;;13.07;3.47;;;2.70;99.90;;;;;;5052533;28;20604;-61
2021/01/22 04:05:53;;;;;;;13.87;3.83;;;2.80;99.90;;;;;;5053040;28;20234;-62
2021/01/22 04:08:19;;;;;;;11.17;3.33;;;2.80;99.90;;;;;;5052632;28;20677;-60
2021/01/22 04:10:46;;;;;;;14.47;3.83;;;2.80;99.90;;;;;;5052635;28;20256;-63
2021/01/22 04:13:12;;;;;;;16.80;3.50;;;2.90;99.90;;;;;;5052989;28;20701;-61
2021/01/22 04:15:38;;;;;;;14.57;4.10;;;2.90;99.90;;;;;;5053200;28;20234;-62
2021/01/22 04:18:05;;;;;;;8.27;3.60;;;2.90;99.90;;;;;;5052364;28;20238;-62
2021/01/22 04:20:31;;;;;;;9.77;3.70;;;3.00;99.90;;;;;;5052163;28;20239;-61
2021/01/22 04:23:00;;;;;;;6.60;3.37;;;3.10;99.90;;;;;;5052552;28;20196;-60
2021/01/22 04:25:26;;;;;;;11.23;2.77;;;3.00;99.90;;;;;;5052257;28;20198;-62
2021/01/22 04:27:53;;;;;;;14.77;3.50;;;3.00;99.90;;;;;;5051726;28;20203;-61
2021/01/22 04:30:20;;;;;;;11.10;3.50;;;3.00;99.90;;;;;;5052098;28;20212;-61
2021/01/22 04:32:47;;;;;;;11.77;3.70;;;3.10;99.90;;;;;;5052361;28;20661;-62
2021/01/22 04:35:14;;;;;;;16.13;4.30;;;3.10;99.90;;;;;;5052309;28;20230;-61
2021/01/22 04:37:41;;;;;;;12.53;3.70;;;3.10;99.90;;;;;;5052097;28;20240;-63
2021/01/22 04:40:11;;;;;;;10.33;3.70;;;3.10;99.90;;;;;;5051825;28;20273;-62
2021/01/22 04:42:40;;;;;;;8.10;3.53;;;3.20;99.90;;;;;;5051872;28;20235;-61
2021/01/22 04:45:08;;;;;;;9.43;3.40;;;3.20;99.90;;;;;;5052321;28;20184;-62
2021/01/22 04:47:35;;;;;;;7.77;3.63;;;3.10;99.90;;;;;;5051834;28;20281;-63
2021/01/22 04:50:05;;;;;;;12.10;3.33;;;3.10;99.90;;;;;;5052161;28;20626;-61
2021/01/22 04:52:32;;;;;;;9.83;3.70;;;3.20;99.90;;;;;;5052007;28;20229;-64
2021/01/22 04:55:01;;;;;;;9.73;3.60;;;3.20;99.90;;;;;;5051341;28;20215;-61
2021/01/22 04:57:31;;;;;;;10.50;3.33;;;3.20;99.90;;;;;;5052010;28;20635;-61
2021/01/22 04:59:58;;;;;;;16.00;3.43;;;3.20;99.90;;;;;;5051885;28;20251;-62
2021/01/22 05:02:25;;;;;;;10.63;3.60;;;3.20;99.90;;;;;;5051295;28;20665;-62
2021/01/22 05:04:51;;;;;;;15.77;3.80;;;3.30;99.90;;;;;;5052063;28;20259;-61
2021/01/22 05:07:21;;;;;;;8.47;3.00;;;3.30;99.90;;;;;;5051476;28;20622;-62
2021/01/22 05:09:48;;;;;;;10.50;3.50;;;3.20;99.90;;;;;;5051559;28;20195;-62
2021/01/22 05:12:15;;;;;;;14.93;3.60;;;3.20;99.90;;;;;;5051414;28;20202;-64
2021/01/22 05:14:43;;;;;;;12.93;3.33;;;3.20;99.90;;;;;;5050751;28;20501;-62
2021/01/22 05:17:10;;;;;;;7.47;3.00;;;3.30;99.90;;;;;;5051620;28;20199;-62
2021/01/22 05:19:39;;;;;;;10.70;3.20;;;3.30;99.90;;;;;;5050963;28;20768;-63
2021/01/22 05:22:07;;;;;;;14.57;3.23;;;3.30;99.90;;;;;;5051692;28;20238;-63
2021/01/22 05:24:35;;;;;;;13.80;3.30;;;3.30;99.90;;;;;;5051265;28;20211;-62
2021/01/22 05:27:03;;;;;;;11.27;3.27;;;3.40;99.90;;;;;;5051555;28;20287;-62
2021/01/22 05:29:31;;;;;;;12.70;3.60;;;3.40;99.90;;;;;;5051346;28;20225;-61
2021/01/22 05:31:59;;;;;;;10.60;3.50;;;3.50;99.90;;;;;;5050858;28;20625;-62
2021/01/22 05:34:43;;;;;;;10.67;3.27;;;3.50;99.90;;;;;;5051221;28;20215;-62
2021/01/22 05:37:10;;;;;;;7.83;3.07;;;3.50;99.90;;;;;;5051183;28;20292;-62
2021/01/22 05:39:36;;;;;;;9.40;3.17;;;3.50;99.90;;;;;;5051141;28;20255;-61
2021/01/22 05:42:03;;;;;;;11.27;3.00;;;3.60;99.90;;;;;;5051299;28;20229;-62
2021/01/22 05:44:29;;;;;;;8.83;2.70;;;3.50;99.90;;;;;;5051926;28;20243;-62
2021/01/22 05:47:05;;;;;;;5.53;2.57;;;3.60;99.90;;;;;;5051256;28;20189;-62
2021/01/22 05:49:32;;;;;;;10.53;3.30;;;3.60;99.90;;;;;;5051204;28;20261;-63
2021/01/22 05:51:59;;;;;;;12.97;3.50;;;3.60;99.90;;;;;;5051106;28;20507;-63
2021/01/22 05:54:36;;;;;;;9.77;2.80;;;3.60;99.90;;;;;;5050858;28;20645;-62
2021/01/22 05:57:02;;;;;;;9.13;3.13;;;3.60;99.90;;;;;;5051835;28;20187;-62
2021/01/22 05:59:29;;;;;;;15.83;3.50;;;3.60;99.90;;;;;;5050816;28;20203;-62
2021/01/22 06:01:56;;;;;;;12.30;3.20;;;3.70;99.90;;;;;;5051195;28;20196;-62
2021/01/22 06:04:23;;;;;;;14.00;3.00;;;3.70;99.90;;;;;;5050879;28;20242;-62
2021/01/22 06:06:51;;;;;;;14.47;3.03;;;3.70;99.90;;;;;;5050844;28;20235;-62
2021/01/22 06:09:32;;;;;;;10.83;3.03;;;3.80;99.90;;;;;;5050487;28;20660;-62
2021/01/22 06:12:01;;;;;;;9.90;3.30;;;3.80;99.90;;;;;;5050593;28;20598;-62
2021/01/22 06:14:33;;;;;;;12.43;3.10;;;3.90;99.90;;;;;;5050780;28;20238;-63
2021/01/22 06:17:04;;;;;;;10.20;3.10;;;3.90;99.90;;;;;;5051206;28;20194;-62
2021/01/22 06:19:36;;;;;;;6.87;2.87;;;3.90;99.90;;;;;;5050594;28;20641;-62
2021/01/22 06:22:08;;;;;;;9.50;3.60;;;3.90;99.90;;;;;;5050657;28;20211;-63
2021/01/22 06:24:35;;;;;;;8.90;3.10;;;3.90;99.90;;;;;;5051039;28;20250;-64
2021/01/22 06:27:02;;;;;;;9.50;2.43;;;4.00;99.90;;;;;;5054371;28;20582;-62
2021/01/22 06:29:29;;;;;;;8.80;3.07;;;4.10;99.90;;;;;;5055109;28;20286;-62
2021/01/22 06:31:57;;;;;;;9.80;3.00;;;4.10;99.90;;;;;;5054326;28;20196;-63
2021/01/22 06:34:25;;;;;;;7.73;3.00;;;4.10;99.90;;;;;;5054321;28;20272;-63
2021/01/22 06:36:54;;;;;;;8.13;2.93;;;4.10;99.90;;;;;;5054867;28;20230;-65
2021/01/22 06:39:20;;;;;;;9.40;3.50;;;4.10;99.90;;;;;;5054611;28;20196;-61
2021/01/22 06:41:47;;;;;;;7.20;3.30;;;4.10;99.90;;;;;;5055361;28;20226;-62
2021/01/22 06:44:14;;;;;;;12.77;3.00;;;4.10;99.90;;;;;;5054956;28;20302;-63
2021/01/22 06:46:40;;;;;;;9.80;2.90;;;4.10;99.90;;;;;;5054671;28;20227;-62
2021/01/22 06:49:07;;;;;;;10.63;3.37;;;4.10;99.90;;;;;;5054593;28;20290;-62
2021/01/22 06:51:35;;;;;;;14.77;3.33;;;4.10;99.90;;;;;;5054556;28;20245;-63
2021/01/22 06:54:10;;;;;;;13.97;3.40;;;4.20;99.90;;;;;;5054860;28;20190;-63
2021/01/22 06:56:38;;;;;;;13.97;3.30;;;4.20;99.90;;;;;;5054737;28;20547;-62
2021/01/22 06:59:37;;;;;;;10.37;3.00;;;4.20;99.90;;;;;;5054002;28;20716;-63
2021/01/22 07:02:04;;;;;;;8.57;3.17;;;4.30;99.90;;;;;;5034263;28;20729;-61
2021/01/22 07:04:40;;;;;;;13.33;3.30;;;4.30;99.90;;;;;;5034754;28;20737;-61
2021/01/22 07:07:08;;;;;;;9.57;2.80;;;4.20;99.90;;;;;;5047978;28;20594;-61
2021/01/22 07:09:54;;;;;;;9.97;2.73;;;4.30;99.90;;;;;;5053991;28;20602;-64
2021/01/22 07:12:41;;;;;;;11.23;3.30;;;4.20;99.90;;;;;;5053942;28;20199;-62
2021/01/22 07:15:28;;;;;;;11.60;3.07;;;4.30;99.90;;;;;;5054605;28;20199;-64
2021/01/22 07:17:59;;;;;;;9.97;3.10;;;4.30;99.90;;;;;;5054342;28;20196;-63
2021/01/22 07:20:28;;;;;;;17.03;3.40;;;4.20;99.90;;;;;;5054118;28;20332;-64
2021/01/22 07:22:56;;;;;;;6.83;2.97;;;4.20;99.90;;;;;;5053558;28;20222;-63
2021/01/22 07:25:36;;;;;;;15.77;2.90;;;4.20;99.90;;;;;;5053966;28;20278;-62
2021/01/22 07:28:20;;;;;;;12.00;2.70;;;4.30;99.90;;;;;;5053850;28;20187;-65
2021/01/22 07:30:47;;;;;;;11.67;3.17;;;4.40;99.90;;;;;;5054132;28;20223;-62
2021/01/22 07:33:36;;;;;;;9.97;2.57;;;4.40;99.90;;;;;;5054008;28;20298;-62
2021/01/22 07:36:08;;;;;;;6.50;2.40;;;4.30;99.90;;;;;;5054071;28;20222;-62
2021/01/22 07:38:35;;;;;;;10.10;2.70;;;4.30;99.90;;;;;;5051985;28;20658;-63
2021/01/22 07:41:03;;;;;;;9.37;2.63;;;4.40;99.90;;;;;;5053770;28;20276;-62
2021/01/22 07:43:29;;;;;;;7.90;3.00;;;4.40;99.90;;;;;;5053873;28;20267;-63
2021/01/22 07:46:06;;;;;;;9.97;2.63;;;4.40;99.90;;;;;;5053877;28;20616;-63
2021/01/22 07:48:32;;;;;;;6.40;2.37;;;4.40;99.90;;;;;;5053979;28;20203;-64
2021/01/22 07:50:59;;;;;;;9.87;2.70;;;4.40;99.90;;;;;;5053601;28;20279;-63
2021/01/22 07:53:26;;;;;;;6.43;2.27;;;4.40;99.90;;;;;;5053100;28;20665;-63
2021/01/22 07:55:53;;;;;;;10.23;2.83;;;4.40;99.90;;;;;;5053442;28;20192;-64
2021/01/22 07:58:20;;;;;;;6.03;2.07;;;4.40;99.90;;;;;;5053438;28;20211;-63
2021/01/22 08:00:47;;;;;;;12.07;2.20;;;4.40;99.90;;;;;;5052668;28;20243;-63
2021/01/22 08:03:13;;;;;;;11.83;2.40;;;4.40;99.90;;;;;;5051372;28;20278;-64
2021/01/22 08:05:41;;;;;;;6.87;2.37;;;4.40;99.90;;;;;;5053606;28;20202;-65
2021/01/22 08:08:18;;;;;;;10.37;2.47;;;4.40;99.90;;;;;;5053582;28;20634;-64
2021/01/22 08:10:45;;;;;;;13.33;3.00;;;4.40;99.90;;;;;;5053900;28;20241;-64
2021/01/22 08:13:11;;;;;;;8.10;2.50;;;4.40;99.90;;;;;;5053096;28;20216;-66
2021/01/22 08:15:38;;;;;;;9.73;2.80;;;4.30;99.90;;;;;;5053317;28;20191;-63
2021/01/22 08:18:06;;;;;;;10.00;2.90;;;4.30;99.90;;;;;;5052956;28;20192;-64
2021/01/22 08:20:33;;;;;;;7.33;2.37;;;4.30;99.90;;;;;;5053048;28;20711;-62
2021/01/22 08:23:00;;;;;;;8.67;2.43;;;4.30;99.90;;;;;;5052801;28;20199;-63
2021/01/22 08:25:31;;;;;;;11.23;2.97;;;4.30;99.90;;;;;;5052927;28;20211;-63
2021/01/22 08:27:59;;;;;;;8.10;2.67;;;4.30;99.90;;;;;;5053158;28;20648;-62
2021/01/22 08:30:27;;;;;;;11.23;3.03;;;4.30;99.90;;;;;;5052756;28;20334;-63
2021/01/22 08:32:56;;;;;;;8.87;2.70;;;4.30;99.90;;;;;;5033442;28;20228;-63
2021/01/22 08:35:23;;;;;;;14.43;3.37;;;4.30;99.90;;;;;;5050417;28;20226;-62
2021/01/22 08:37:50;;;;;;;11.20;2.90;;;4.30;99.90;;;;;;5051943;28;20271;-62
2021/01/22 08:40:17;;;;;;;7.00;2.50;;;4.30;99.90;;;;;;5052675;28;20207;-63
2021/01/22 08:42:58;;;;;;;10.07;2.97;;;4.30;99.90;;;;;;5051847;28;20232;-64
2021/01/22 08:45:24;;;;;;;8.80;2.83;;;4.30;99.90;;;;;;5051928;28;20624;-62
2021/01/22 08:47:51;;;;;;;8.80;3.13;;;4.20;99.90;;;;;;5052112;28;20282;-63
2021/01/22 08:50:19;;;;;;;7.83;2.60;;;4.20;99.90;;;;;;5052208;28;20239;-62
2021/01/22 08:52:46;;;;;;;6.73;2.30;;;4.20;99.90;;;;;;5051807;28;20629;-64
2021/01/22 08:55:19;;;;;;;10.57;3.17;;;4.10;99.90;;;;;;5052354;28;20553;-63
2021/01/22 08:57:59;;;;;;;6.30;2.50;;;4.10;99.90;;;;;;5052910;28;20199;-64
2021/01/22 09:00:26;;;;;;;4.03;2.43;;;4.00;99.90;;;;;;5052780;28;20760;-63
2021/01/22 09:02:52;;;;;;;7.00;2.40;;;4.00;99.90;;;;;;5052075;28;20183;-64
2021/01/22 09:05:20;;;;;;;6.73;2.30;;;4.00;99.90;;;;;;5052405;28;20383;-64
2021/01/22 09:07:47;;;;;;;8.37;2.83;;;4.00;99.90;;;;;;5052406;28;20198;-64
2021/01/22 09:10:29;;;;;;;7.70;2.50;;;4.00;99.90;;;;;;5052164;28;20253;-62
2021/01/22 09:13:08;;;;;;;6.07;2.53;;;4.00;99.90;;;;;;5051765;28;20195;-62
2021/01/22 09:15:35;;;;;;;7.33;2.80;;;4.00;99.90;;;;;;5052635;28;20215;-62
2021/01/22 09:18:01;;;;;;;5.93;2.97;;;4.00;99.90;;;;;;5051495;28;20195;-63
2021/01/22 09:20:29;;;;;;;10.80;2.67;;;4.00;99.90;;;;;;5052475;28;20215;-63
2021/01/22 09:23:02;;;;;;;5.57;2.70;;;4.00;99.90;;;;;;5049599;28;20188;-62
2021/01/22 09:25:29;;;;;;;6.20;2.37;;;4.00;99.90;;;;;;5045823;28;20195;-63
2021/01/22 09:27:56;;;;;;;5.60;2.30;;;4.00;99.90;;;;;;5051574;28;20294;-64
2021/01/22 09:30:25;;;;;;;4.97;2.50;;;4.00;99.90;;;;;;5051363;28;20285;-64
2021/01/22 09:32:53;;;;;;;2.57;2.10;;;4.10;99.90;;;;;;5052602;28;20231;-63
2021/01/22 09:35:20;;;;;;;5.37;2.07;;;4.10;99.90;;;;;;5051561;28;20219;-64
2021/01/22 09:37:48;;;;;;;3.57;2.10;;;4.10;99.90;;;;;;5051508;28;20196;-62
2021/01/22 09:40:16;;;;;;;6.40;2.47;;;4.10;99.90;;;;;;5051159;28;20310;-64
2021/01/22 09:42:42;;;;;;;6.33;2.80;;;4.00;99.90;;;;;;5051440;28;20231;-64
2021/01/22 09:45:11;;;;;;;10.53;2.90;;;4.00;99.90;;;;;;5051481;28;20275;-61
2021/01/22 09:47:38;;;;;;;6.93;2.80;;;4.00;99.90;;;;;;5051074;28;20274;-63
2021/01/22 09:50:06;;;;;;;7.83;3.60;;;4.10;99.90;;;;;;5049284;28;20483;-62
2021/01/22 09:52:36;;;;;;;6.60;3.00;;;4.10;99.90;;;;;;5050945;28;20673;-61
2021/01/22 09:55:04;;;;;;;6.73;3.50;;;4.20;99.90;;;;;;5052126;28;20251;-62
2021/01/22 09:57:30;;;;;;;9.13;3.77;;;4.20;99.90;;;;;;5051121;28;20230;-64
2021/01/22 09:59:56;;;;;;;7.23;3.57;;;4.20;99.90;;;;;;5050897;28;20288;-63
2021/01/22 10:02:23;;;;;;;8.77;4.00;;;4.20;99.90;;;;;;5051471;28;20671;-63
2021/01/22 10:04:49;;;;;;;7.57;4.13;;;4.20;99.90;;;;;;5051637;28;20311;-62
2021/01/22 10:07:16;;;;;;;10.20;4.23;;;4.30;99.90;;;;;;5051199;28;20246;-63
2021/01/22 10:09:42;;;;;;;11.03;5.10;;;4.20;99.90;;;;;;5051468;28;20574;-62
2021/01/22 10:12:10;;;;;;;10.73;5.43;;;4.30;99.90;;;;;;5051322;28;20231;-62
2021/01/22 10:14:37;;;;;;;9.80;5.43;;;4.30;99.90;;;;;;5051663;28;20282;-62
2021/01/22 10:17:03;;;;;;;17.17;6.60;;;4.30;99.90;;;;;;5045062;28;20196;-64
2021/01/22 10:19:29;;;;;;;15.13;7.17;;;4.40;99.90;;;;;;5046611;28;20620;-63
2021/01/22 10:21:56;;;;;;;16.03;7.37;;;4.40;99.90;;;;;;5051108;28;20266;-64
2021/01/22 10:24:22;;;;;;;16.67;8.00;;;4.40;99.90;;;;;;5050647;28;20219;-64
2021/01/22 10:26:50;;;;;;;14.43;9.53;;;4.50;99.90;;;;;;5051135;28;20317;-63
2021/01/22 10:29:18;;;;;;;17.13;8.60;;;4.50;99.90;;;;;;5050004;28;20294;-64
2021/01/22 10:31:44;;;;;;;19.47;9.33;;;4.60;99.90;;;;;;5051480;28;20324;-64
2021/01/22 10:34:11;;;;;;;15.87;10.13;;;4.60;99.90;;;;;;5050518;28;20270;-64
2021/01/22 10:36:38;;;;;;;20.80;10.30;;;4.60;99.90;;;;;;5051480;28;20719;-63
2021/01/22 10:39:05;;;;;;;22.23;11.33;;;4.60;99.90;;;;;;5051542;28;20231;-63
2021/01/22 10:41:32;;;;;;;17.90;10.70;;;4.70;99.90;;;;;;5050992;28;20234;-66
2021/01/22 10:43:58;;;;;;;19.83;10.60;;;4.70;99.90;;;;;;5051163;28;20219;-64
2021/01/22 10:46:26;;;;;;;20.73;12.10;;;4.70;99.90;;;;;;5051547;28;20286;-65
2021/01/22 10:48:52;;;;;;;23.00;11.57;;;4.70;99.90;;;;;;5051435;28;20650;-63
2021/01/22 10:51:18;;;;;;;23.83;12.80;;;4.70;99.90;;;;;;5051420;28;20631;-62
2021/01/22 10:53:46;;;;;;;22.50;12.63;;;4.70;99.90;;;;;;5051355;28;20184;-63
2021/01/22 10:56:12;;;;;;;19.00;11.80;;;4.70;99.90;;;;;;5050944;28;20239;-65
2021/01/22 10:58:39;;;;;;;18.43;10.73;;;4.80;99.90;;;;;;5050933;28;20233;-64
2021/01/22 11:01:05;;;;;;;20.13;11.07;;;4.80;99.90;;;;;;5051083;28;20259;-64
2021/01/22 11:03:33;;;;;;;26.40;14.13;;;4.80;99.90;;;;;;5051548;28;20262;-66
2021/01/22 11:06:00;;;;;;;25.40;14.07;;;4.80;99.90;;;;;;5050819;28;20196;-64
2021/01/22 11:08:26;;;;;;;24.33;14.37;;;4.80;99.90;;;;;;5051464;28;20269;-65
2021/01/22 11:10:53;;;;;;;33.90;14.63;;;4.90;99.90;;;;;;5051417;28;20693;-65
2021/01/22 11:13:19;;;;;;;33.27;14.90;;;4.90;99.90;;;;;;5053082;28;20202;-64
2021/01/22 11:15:46;;;;;;;34.83;16.87;;;4.90;99.90;;;;;;5054663;28;20645;-66
2021/01/22 11:18:12;;;;;;;27.50;14.57;;;4.90;99.90;;;;;;5042384;28;20197;-62
2021/01/22 11:20:39;;;;;;;30.83;15.83;;;5.00;99.90;;;;;;5035126;28;20710;-66
2021/01/22 11:23:07;;;;;;;25.70;16.00;;;5.10;99.90;;;;;;5035374;28;20246;-64
2021/01/22 11:25:33;;;;;;;28.87;15.67;;;5.10;99.90;;;;;;5034767;28;20532;-66
2021/01/22 11:28:00;;;;;;;30.57;15.63;;;5.10;99.90;;;;;;5034273;28;20668;-64
2021/01/22 11:30:26;;;;;;;30.60;14.97;;;5.10;99.90;;;;;;5034567;28;20231;-63
2021/01/22 11:32:53;;;;;;;25.67;15.33;;;5.20;99.90;;;;;;5034484;28;20196;-63
2021/01/22 11:35:19;;;;;;;27.40;13.73;;;5.20;99.90;;;;;;5034011;28;20643;-62
2021/01/22 11:37:47;;;;;;;28.63;14.70;;;5.30;99.90;;;;;;5034797;28;20319;-62
2021/01/22 11:40:15;;;;;;;30.43;13.47;;;5.30;99.90;;;;;;5034683;28;20238;-63
2021/01/22 11:42:43;;;;;;;22.60;11.20;;;5.40;99.90;;;;;;5033872;28;20199;-65
2021/01/22 11:45:11;;;;;;;25.07;12.13;;;5.40;99.90;;;;;;5034449;28;20188;-63
2021/01/22 11:47:38;;;;;;;23.73;12.17;;;5.40;99.90;;;;;;5034072;28;20215;-64
2021/01/22 11:50:06;;;;;;;27.77;12.80;;;5.40;99.90;;;;;;5043500;28;20346;-63
2021/01/22 11:52:32;;;;;;;23.47;10.77;;;5.50;99.90;;;;;;5054073;28;20678;-62
2021/01/22 11:54:59;;;;;;;22.30;10.67;;;5.50;99.90;;;;;;5054133;28;20649;-63
2021/01/22 11:57:26;;;;;;;22.53;10.93;;;5.60;99.90;;;;;;5053992;28;20323;-65
2021/01/22 11:59:52;;;;;;;23.27;10.47;;;5.60;99.90;;;;;;5054000;28;20231;-62
2021/01/22 12:02:18;;;;;;;22.43;10.63;;;5.60;99.90;;;;;;5053705;28;20615;-63
2021/01/22 12:04:47;;;;;;;22.73;11.07;;;5.60;99.90;;;;;;5054068;28;20745;-63
2021/01/22 12:07:14;;;;;;;22.67;10.03;;;5.60;99.90;;;;;;5053437;28;20344;-63
2021/01/22 12:09:40;;;;;;;25.17;11.17;;;5.60;99.90;;;;;;5053114;28;20227;-63
2021/01/22 12:12:09;;;;;;;22.00;10.17;;;5.50;99.90;;;;;;5053487;28;20200;-65
2021/01/22 12:14:36;;;;;;;24.83;10.80;;;5.50;99.90;;;;;;5053428;28;20586;-66
2021/01/22 12:17:02;;;;;;;22.67;9.97;;;5.50;99.90;;;;;;5053342;28;20653;-63
2021/01/22 12:19:29;;;;;;;18.47;9.43;;;5.60;99.90;;;;;;5052436;28;20234;-63
2021/01/22 12:21:55;;;;;;;23.90;10.27;;;5.60;99.90;;;;;;5054139;28;20390;-63
2021/01/22 12:24:22;;;;;;;26.67;10.63;;;5.50;99.90;;;;;;5064819;28;20215;-62
2021/01/22 12:26:48;;;;;;;18.20;9.57;;;5.50;99.90;;;;;;5052745;28;20255;-63
2021/01/22 12:29:15;;;;;;;22.37;8.63;;;5.50;99.90;;;;;;5052737;28;20603;-64
2021/01/22 12:31:42;;;;;;;18.37;8.57;;;5.60;99.90;;;;;;5052947;28;20664;-63
2021/01/22 12:34:09;;;;;;;20.53;8.50;;;5.60;99.90;;;;;;5053203;28;20238;-63
2021/01/22 12:36:35;;;;;;;17.10;7.90;;;5.70;99.90;;;;;;5053030;28;20199;-63
2021/01/22 12:39:02;;;;;;;18.27;8.37;;;5.70;99.90;;;;;;5051539;28;20506;-61
2021/01/22 12:41:30;;;;;;;17.23;7.80;;;5.70;99.90;;;;;;5071635;28;20246;-63
2021/01/22 12:43:57;;;;;;;15.40;8.10;;;5.70;99.90;;;;;;5039638;28;20191;-65
2021/01/22 12:46:24;;;;;;;14.57;7.47;;;5.70;99.90;;;;;;5052694;28;20286;-64
2021/01/22 12:48:51;;;;;;;15.77;7.23;;;5.70;99.90;;;;;;5052799;28;20286;-62
2021/01/22 12:51:17;;;;;;;14.03;6.20;;;5.80;99.90;;;;;;5041337;28;20211;-64
2021/01/22 12:53:44;;;;;;;20.33;6.90;;;5.80;99.90;;;;;;5053059;28;20349;-70